Time;durP1;ratioP1;P1;durP2;ratioP2;P2;SDS_P1;SDS_P2;PMS_P1;PMS_P2;Temp;Humidity;BMP_temperature;BMP_pressure;BME280_temperature;BME280_humidity;BME280_pressure;Samples;Min_cycle;Max_cycle;Signal;HPM_P1;HPM_P2
2023/06/05 03:45:00;;;;;;;;;;;;;;;;;;;;;
2023/06/05 05:48:43;;;;;;;7.65;2.13;;;;;;;;;;6148068;23;20021;-84
2023/06/05 05:54:16;;;;;;;3.80;1.90;;;;;;;;;;6202274;23;20015;-85
2023/06/05 05:56:47;;;;;;;5.47;1.70;;;;;;;;;;6183993;23;20016;-85
2023/06/05 07:08:47;;;;;;;4.20;1.50;;;;;;;;;;6154540;23;20065;-84
2023/06/05 09:15:33;;;;;;;8.30;2.72;;;;;;;;;;6179949;23;20467;-85
2023/06/05 09:52:38;;;;;;;10.02;3.22;;;;;;;;;;6155922;23;20063;-86
2023/06/05 09:55:06;;;;;;;4.45;2.80;;;;;;;;;;6180158;23;20013;-85
2023/06/05 10:13:07;;;;;;;5.70;2.30;;;;;;;;;;6132119;23;20052;-85
2023/06/05 10:15:34;;;;;;;5.20;2.40;;;;;;;;;;6145653;23;20010;-85
2023/06/05 10:18:00;;;;;;;6.78;3.67;;;;;;;;;;6145601;23;20006;-82
2023/06/05 10:20:27;;;;;;;5.97;2.63;;;;;;;;;;6145062;23;20006;-85
2023/06/05 10:22:57;;;;;;;15.45;3.53;;;;;;;;;;6144910;23;20315;-85
2023/06/05 10:25:23;;;;;;;9.52;4.45;;;;;;;;;;6146876;23;20006;-81
2023/06/05 10:28:05;;;;;;;6.22;3.42;;;;;;;;;;6124904;23;20025;-82
2023/06/05 10:30:34;;;;;;;6.75;3.20;;;;;;;;;;6121400;23;20369;-82
2023/06/05 10:33:01;;;;;;;7.38;3.53;;;;;;;;;;6120911;23;20049;-82
2023/06/05 10:35:30;;;;;;;7.68;4.13;;;;;;;;;;6121680;23;20002;-81
2023/06/05 10:38:06;;;;;;;7.20;4.32;;;;;;;;;;6121939;23;20805;-83
2023/06/05 10:40:33;;;;;;;8.45;3.40;;;;;;;;;;6144921;23;20442;-85
2023/06/05 10:43:18;;;;;;;14.15;3.42;;;;;;;;;;6122689;23;20057;-82
2023/06/05 10:45:45;;;;;;;6.57;3.15;;;;;;;;;;6147721;23;20021;-82
2023/06/05 10:48:11;;;;;;;6.43;3.75;;;;;;;;;;6124188;23;20010;-83
2023/06/05 10:50:37;;;;;;;10.70;3.65;;;;;;;;;;6125719;23;20029;-82
2023/06/05 10:53:03;;;;;;;6.47;3.20;;;;;;;;;;6147513;23;20010;-85
2023/06/05 10:55:42;;;;;;;6.53;3.20;;;;;;;;;;6146499;23;20053;-85
2023/06/05 10:58:09;;;;;;;9.35;3.35;;;;;;;;;;6146889;23;20407;-83
2023/06/05 11:06:07;;;;;;;6.10;3.55;;;;;;;;;;6182438;23;20081;-83
2023/06/05 11:08:33;;;;;;;6.88;3.45;;;;;;;;;;6156463;23;20037;-84
2023/06/05 11:11:03;;;;;;;6.28;3.60;;;;;;;;;;6156103;23;20017;-85
2023/06/05 11:13:48;;;;;;;8.23;3.60;;;;;;;;;;6156242;23;20005;-84
2023/06/05 13:43:06;;;;;;;8.30;4.40;;;;;;;;;;6144551;23;20052;-81
2023/06/05 13:45:43;;;;;;;5.93;3.92;;;;;;;;;;6176983;23;20464;-81
2023/06/05 13:48:09;;;;;;;8.60;3.60;;;;;;;;;;6181159;23;20001;-82
2023/06/05 13:50:35;;;;;;;6.35;4.03;;;;;;;;;;6154132;23;20333;-83
2023/06/05 13:53:01;;;;;;;7.22;4.30;;;;;;;;;;6181076;23;20005;-82
2023/06/05 13:55:27;;;;;;;8.57;4.40;;;;;;;;;;6153776;23;20009;-82
2023/06/05 13:57:53;;;;;;;9.32;3.72;;;;;;;;;;6180460;23;20409;-82
2023/06/05 14:00:19;;;;;;;7.38;4.20;;;;;;;;;;6180858;23;20088;-82
2023/06/05 14:02:48;;;;;;;7.35;4.32;;;;;;;;;;6180823;23;20079;-83
2023/06/05 14:05:14;;;;;;;7.68;4.60;;;;;;;;;;6181310;23;20040;-83
2023/06/05 14:07:40;;;;;;;8.18;4.40;;;;;;;;;;6154246;23;20053;-83
2023/06/05 14:31:25;;;;;;;;;;;;;;;;;;;;;
2023/06/05 14:37:31;;;;;;;5.50;3.60;;;;;;;;;;6205967;23;20079;-86
2023/06/05 14:49:01;;;;;;;;;;;;;;;;;;;;;
2023/06/05 15:05:48;;;;;;;6.90;3.22;;;;;;;;;;6085589;23;20026;-85
2023/06/05 15:08:16;;;;;;;7.63;3.60;;;;;;;;;;6170066;23;20013;-85
2023/06/05 15:11:24;;;;;;;8.73;4.00;;;;;;;;;;6182423;23;20016;-85
2023/06/05 15:14:39;;;;;;;6.78;3.33;;;;;;;;;;6138191;23;20025;-86
2023/06/05 15:17:30;;;;;;;;;;;;;;;;;;;;;
2023/06/05 15:20:18;;;;;;;9.63;3.92;;;;;;;;;;6065558;23;20021;-85
2023/06/05 15:22:44;;;;;;;8.27;3.80;;;;;;;;;;6087652;23;20050;-83
2023/06/05 15:25:10;;;;;;;6.85;3.63;;;;;;;;;;6121143;23;20348;-83
2023/06/05 15:27:36;;;;;;;6.35;3.83;;;;;;;;;;6147466;23;20350;-83
2023/06/05 15:30:03;;;;;;;6.55;3.88;;;;;;;;;;6148026;23;20048;-83
2023/06/05 15:32:29;;;;;;;4.68;2.78;;;;;;;;;;6123715;23;20060;-86
2023/06/05 15:34:55;;;;;;;7.07;3.70;;;;;;;;;;6124385;23;20009;-85
2023/06/05 15:37:23;;;;;;;6.60;3.40;;;;;;;;;;6123411;23;20021;-86
2023/06/05 16:03:49;;;;;;;6.25;3.75;;;;;;;;;;6140964;23;20035;-86
2023/06/05 16:06:52;;;;;;;9.43;3.83;;;;;;;;;;6184334;23;20021;-86
2023/06/05 16:13:14;;;;;;;;;;;;;;;;;;;;;
2023/06/05 16:16:28;;;;;;;5.10;3.05;;;;;;;;;;6206588;23;20436;-85
2023/06/05 16:29:47;;;;;;;10.15;3.78;;;;;;;;;;6213661;23;20106;-86
2023/06/05 16:35:27;;;;;;;7.50;3.72;;;;;;;;;;6204873;23;20523;-86
2023/06/05 16:41:44;;;;;;;;;;;;;;;;;;;;;
2023/06/05 16:44:49;;;;;;;;;;;;;;;;;;;;;
2023/06/05 16:47:46;;;;;;;7.30;3.38;;;;;;;;;;6147839;23;20019;-86
2023/06/05 16:57:13;;;;;;;;;;;;;;;;;;;;;
2023/06/05 17:05:57;;;;;;;7.13;4.03;;;;;;;;;;6181068;23;20051;-86
2023/06/05 17:11:56;;;;;;;;;;;;;;;;;;;;;
2023/06/05 17:24:22;;;;;;;7.28;3.55;;;;;;;;;;6074910;23;20477;-85
2023/06/05 17:26:48;;;;;;;7.30;4.38;;;;;;;;;;6153904;23;20017;-85
2023/06/05 17:29:14;;;;;;;8.82;3.80;;;;;;;;;;6181638;23;20054;-85
2023/06/05 17:31:40;;;;;;;8.68;3.47;;;;;;;;;;6180964;23;20413;-85
2023/06/05 17:34:06;;;;;;;6.28;3.65;;;;;;;;;;6154856;23;20013;-85
2023/06/05 17:36:32;;;;;;;9.63;3.60;;;;;;;;;;6181342;23;20444;-85
2023/06/05 17:38:58;;;;;;;7.57;4.47;;;;;;;;;;6181101;23;20005;-85
2023/06/05 17:41:24;;;;;;;6.75;3.60;;;;;;;;;;6180987;23;20020;-85
2023/06/05 17:43:54;;;;;;;8.80;3.92;;;;;;;;;;6181241;23;20009;-84
2023/06/05 17:46:20;;;;;;;5.68;3.63;;;;;;;;;;6181264;23;20035;-85
2023/06/05 17:48:46;;;;;;;8.32;3.80;;;;;;;;;;6181078;23;20091;-86
2023/06/05 17:51:12;;;;;;;10.63;3.92;;;;;;;;;;6180906;23;20037;-84
2023/06/05 18:09:11;;;;;;;7.80;3.78;;;;;;;;;;6150580;23;20690;-84
2023/06/05 18:11:48;;;;;;;7.53;4.50;;;;;;;;;;6124886;23;20329;-84
2023/06/05 18:17:24;;;;;;;6.45;3.65;;;;;;;;;;6019542;23;20035;-84
2023/06/05 18:19:50;;;;;;;8.48;3.63;;;;;;;;;;6124882;23;20562;-81
2023/06/05 18:22:16;;;;;;;10.50;5.03;;;;;;;;;;6125156;23;20310;-84
2023/06/05 18:27:53;;;;;;;8.35;3.97;;;;;;;;;;6182146;22;20063;-86
2023/06/05 18:36:25;;;;;;;9.30;4.38;;;;;;;;;;6181405;23;20089;-81
2023/06/05 18:38:51;;;;;;;7.18;4.18;;;;;;;;;;6181108;23;20358;-81
2023/06/05 18:41:17;;;;;;;7.35;3.95;;;;;;;;;;6181261;23;20016;-80
2023/06/05 18:43:43;;;;;;;9.60;4.28;;;;;;;;;;6181619;23;20040;-81
2023/06/05 18:46:09;;;;;;;5.50;3.45;;;;;;;;;;6180585;23;20329;-82
2023/06/05 18:48:35;;;;;;;8.75;3.70;;;;;;;;;;6154486;23;20013;-83
2023/06/05 18:51:03;;;;;;;10.63;4.03;;;;;;;;;;6155125;23;20028;-80
2023/06/05 18:53:30;;;;;;;6.65;3.40;;;;;;;;;;6181265;23;20056;-81
2023/06/05 18:56:22;;;;;;;7.88;3.90;;;;;;;;;;6175863;23;20065;-84
2023/06/05 19:26:55;;;;;;;7.28;3.78;;;;;;;;;;6179293;22;20090;-85
2023/06/05 22:45:46;;;;;;;;;;;;;;;;;;;;;
